sensor_id;sensor_type;location;lat;lon;timestamp;P1;durP1;ratioP1;P2;durP2;ratioP2
17175;SDS011;8703;48.996;9.594;2023-06-10T00:01:15;6.78;;;5.03;;
17175;SDS011;8703;48.996;9.594;2023-06-10T00:03:56;5.15;;;4.65;;
17175;SDS011;8703;48.996;9.594;2023-06-10T00:13:47;5.10;;;4.60;;
17175;SDS011;8703;48.996;9.594;2023-06-10T00:16:18;5.15;;;4.28;;
17175;SDS011;8703;48.996;9.594;2023-06-10T00:18:45;5.00;;;4.18;;
17175;SDS011;8703;48.996;9.594;2023-06-10T00:21:22;5.72;;;4.50;;
17175;SDS011;8703;48.996;9.594;2023-06-10T00:23:50;4.38;;;3.97;;
17175;SDS011;8703;48.996;9.594;2023-06-10T00:26:20;4.70;;;4.30;;
17175;SDS011;8703;48.996;9.594;2023-06-10T00:28:53;4.82;;;4.07;;
17175;SDS011;8703;48.996;9.594;2023-06-10T00:31:21;5.10;;;4.47;;
17175;SDS011;8703;48.996;9.594;2023-06-10T00:33:48;5.22;;;4.70;;
17175;SDS011;8703;48.996;9.594;2023-06-10T00:36:19;4.60;;;4.15;;
17175;SDS011;8703;48.996;9.594;2023-06-10T00:38:49;4.82;;;4.32;;
17175;SDS011;8703;48.996;9.594;2023-06-10T00:41:19;6.45;;;4.57;;
17175;SDS011;8703;48.996;9.594;2023-06-10T00:43:46;5.20;;;4.18;;
17175;SDS011;8703;48.996;9.594;2023-06-10T00:46:33;4.57;;;4.18;;
17175;SDS011;8703;48.996;9.594;2023-06-10T00:49:04;5.30;;;4.70;;
17175;SDS011;8703;48.996;9.594;2023-06-10T00:51:33;4.75;;;4.10;;
17175;SDS011;8703;48.996;9.594;2023-06-10T00:54:14;4.40;;;4.00;;
17175;SDS011;8703;48.996;9.594;2023-06-10T00:56:45;4.60;;;4.13;;
17175;SDS011;8703;48.996;9.594;2023-06-10T00:59:18;4.47;;;3.85;;
17175;SDS011;8703;48.996;9.594;2023-06-10T01:01:47;4.88;;;4.00;;
17175;SDS011;8703;48.996;9.594;2023-06-10T01:04:15;5.03;;;3.72;;
17175;SDS011;8703;48.996;9.594;2023-06-10T01:06:51;5.20;;;4.07;;
17175;SDS011;8703;48.996;9.594;2023-06-10T01:09:32;4.70;;;4.00;;
17175;SDS011;8703;48.996;9.594;2023-06-10T01:12:08;4.47;;;3.58;;
17175;SDS011;8703;48.996;9.594;2023-06-10T01:39:15;5.63;;;3.60;;
17175;SDS011;8703;48.996;9.594;2023-06-10T01:41:48;5.60;;;4.00;;
17175;SDS011;8703;48.996;9.594;2023-06-10T01:44:17;4.03;;;3.63;;
17175;SDS011;8703;48.996;9.594;2023-06-10T01:46:45;3.70;;;3.40;;
17175;SDS011;8703;48.996;9.594;2023-06-10T01:49:12;5.18;;;3.95;;
17175;SDS011;8703;48.996;9.594;2023-06-10T01:51:40;4.00;;;3.60;;
17175;SDS011;8703;48.996;9.594;2023-06-10T01:54:10;3.80;;;3.50;;
17175;SDS011;8703;48.996;9.594;2023-06-10T01:56:40;5.00;;;3.72;;
17175;SDS011;8703;48.996;9.594;2023-06-10T01:59:17;4.30;;;3.90;;
17175;SDS011;8703;48.996;9.594;2023-06-10T02:01:45;4.13;;;3.73;;
17175;SDS011;8703;48.996;9.594;2023-06-10T02:04:12;4.07;;;3.65;;
17175;SDS011;8703;48.996;9.594;2023-06-10T02:06:41;5.45;;;4.00;;
17175;SDS011;8703;48.996;9.594;2023-06-10T02:09:19;4.00;;;3.60;;
17175;SDS011;8703;48.996;9.594;2023-06-10T02:11:49;4.87;;;3.73;;
17175;SDS011;8703;48.996;9.594;2023-06-10T02:47:32;4.27;;;3.57;;
17175;SDS011;8703;48.996;9.594;2023-06-10T04:14:57;5.23;;;3.83;;
17175;SDS011;8703;48.996;9.594;2023-06-10T04:38:15;5.37;;;3.90;;
17175;SDS011;8703;48.996;9.594;2023-06-10T04:41:23;4.67;;;3.97;;
17175;SDS011;8703;48.996;9.594;2023-06-10T04:43:55;4.93;;;4.10;;
17175;SDS011;8703;48.996;9.594;2023-06-10T04:46:22;6.67;;;4.30;;
17175;SDS011;8703;48.996;9.594;2023-06-10T04:48:50;5.87;;;4.60;;
17175;SDS011;8703;48.996;9.594;2023-06-10T04:51:19;6.63;;;4.30;;
17175;SDS011;8703;48.996;9.594;2023-06-10T04:53:55;7.27;;;4.80;;
17175;SDS011;8703;48.996;9.594;2023-06-10T04:56:23;6.07;;;4.60;;
17175;SDS011;8703;48.996;9.594;2023-06-10T04:58:53;6.10;;;4.60;;
17175;SDS011;8703;48.996;9.594;2023-06-10T05:01:21;5.90;;;4.80;;
17175;SDS011;8703;48.996;9.594;2023-06-10T05:03:51;7.23;;;4.80;;
17175;SDS011;8703;48.996;9.594;2023-06-10T05:06:18;5.30;;;4.80;;
17175;SDS011;8703;48.996;9.594;2023-06-10T05:08:46;9.77;;;5.23;;
17175;SDS011;8703;48.996;9.594;2023-06-10T05:11:21;5.50;;;4.90;;
17175;SDS011;8703;48.996;9.594;2023-06-10T05:13:49;6.90;;;5.07;;
17175;SDS011;8703;48.996;9.594;2023-06-10T05:16:16;6.07;;;5.30;;
17175;SDS011;8703;48.996;9.594;2023-06-10T05:18:44;5.87;;;4.70;;
17175;SDS011;8703;48.996;9.594;2023-06-10T05:21:12;6.67;;;5.50;;
17175;SDS011;8703;48.996;9.594;2023-06-10T05:23:40;5.77;;;5.17;;
17175;SDS011;8703;48.996;9.594;2023-06-10T05:26:09;6.93;;;6.20;;
17175;SDS011;8703;48.996;9.594;2023-06-10T05:28:37;6.97;;;6.27;;
17175;SDS011;8703;48.996;9.594;2023-06-10T05:31:04;8.80;;;6.53;;
17175;SDS011;8703;48.996;9.594;2023-06-10T05:33:32;6.40;;;5.80;;
17175;SDS011;8703;48.996;9.594;2023-06-10T05:35:59;7.90;;;6.20;;
17175;SDS011;8703;48.996;9.594;2023-06-10T05:44:02;6.10;;;5.40;;
17175;SDS011;8703;48.996;9.594;2023-06-10T05:46:30;7.67;;;5.97;;
17175;SDS011;8703;48.996;9.594;2023-06-10T05:48:57;7.20;;;5.80;;
17175;SDS011;8703;48.996;9.594;2023-06-10T05:51:25;6.03;;;5.40;;
17175;SDS011;8703;48.996;9.594;2023-06-10T05:53:53;7.10;;;6.00;;
17175;SDS011;8703;48.996;9.594;2023-06-10T05:56:21;6.93;;;6.22;;
17175;SDS011;8703;48.996;9.594;2023-06-10T05:58:48;6.53;;;5.93;;
17175;SDS011;8703;48.996;9.594;2023-06-10T06:01:18;6.43;;;5.68;;
17175;SDS011;8703;48.996;9.594;2023-06-10T06:03:46;5.63;;;5.03;;
17175;SDS011;8703;48.996;9.594;2023-06-10T06:06:13;8.57;;;5.82;;
17175;SDS011;8703;48.996;9.594;2023-06-10T06:08:40;6.80;;;6.10;;
17175;SDS011;8703;48.996;9.594;2023-06-10T06:11:08;5.63;;;5.13;;
17175;SDS011;8703;48.996;9.594;2023-06-10T06:13:35;7.22;;;5.85;;
17175;SDS011;8703;48.996;9.594;2023-06-10T06:16:03;7.18;;;5.68;;
17175;SDS011;8703;48.996;9.594;2023-06-10T06:18:31;6.53;;;5.90;;
17175;SDS011;8703;48.996;9.594;2023-06-10T06:20:59;6.60;;;6.00;;
17175;SDS011;8703;48.996;9.594;2023-06-10T06:23:26;6.40;;;5.80;;
17175;SDS011;8703;48.996;9.594;2023-06-10T06:25:54;7.03;;;6.43;;
17175;SDS011;8703;48.996;9.594;2023-06-10T06:28:21;7.35;;;6.63;;
17175;SDS011;8703;48.996;9.594;2023-06-10T06:30:53;7.35;;;6.65;;
17175;SDS011;8703;48.996;9.594;2023-06-10T06:33:21;7.20;;;6.50;;
17175;SDS011;8703;48.996;9.594;2023-06-10T06:35:50;7.68;;;6.22;;
17175;SDS011;8703;48.996;9.594;2023-06-10T06:38:17;7.50;;;6.75;;
17175;SDS011;8703;48.996;9.594;2023-06-10T06:40:44;7.10;;;6.40;;
17175;SDS011;8703;48.996;9.594;2023-06-10T06:43:12;7.03;;;6.40;;
17175;SDS011;8703;48.996;9.594;2023-06-10T06:45:39;7.70;;;6.90;;
17175;SDS011;8703;48.996;9.594;2023-06-10T06:48:06;8.52;;;7.07;;
17175;SDS011;8703;48.996;9.594;2023-06-10T06:50:34;7.32;;;6.20;;
17175;SDS011;8703;48.996;9.594;2023-06-10T06:53:03;8.20;;;7.40;;
17175;SDS011;8703;48.996;9.594;2023-06-10T06:55:30;7.55;;;6.90;;
17175;SDS011;8703;48.996;9.594;2023-06-10T06:57:58;7.10;;;6.50;;
17175;SDS011;8703;48.996;9.594;2023-06-10T07:00:27;6.60;;;5.90;;
17175;SDS011;8703;48.996;9.594;2023-06-10T07:02:55;6.70;;;6.10;;
17175;SDS011;8703;48.996;9.594;2023-06-10T07:05:23;7.22;;;5.85;;
17175;SDS011;8703;48.996;9.594;2023-06-10T07:07:52;6.57;;;5.97;;
17175;SDS011;8703;48.996;9.594;2023-06-10T07:10:21;6.97;;;6.28;;
17175;SDS011;8703;48.996;9.594;2023-06-10T07:12:49;6.78;;;6.07;;
17175;SDS011;8703;48.996;9.594;2023-06-10T07:15:17;6.78;;;6.18;;
17175;SDS011;8703;48.996;9.594;2023-06-10T07:17:44;8.75;;;7.45;;
17175;SDS011;8703;48.996;9.594;2023-06-10T07:20:12;6.10;;;5.50;;
17175;SDS011;8703;48.996;9.594;2023-06-10T07:22:40;6.05;;;5.55;;
17175;SDS011;8703;48.996;9.594;2023-06-10T07:25:08;6.20;;;5.60;;
17175;SDS011;8703;48.996;9.594;2023-06-10T07:27:37;6.13;;;5.53;;
17175;SDS011;8703;48.996;9.594;2023-06-10T07:30:05;6.38;;;5.78;;
17175;SDS011;8703;48.996;9.594;2023-06-10T07:32:34;8.20;;;6.07;;
17175;SDS011;8703;48.996;9.594;2023-06-10T07:35:01;6.20;;;5.50;;
17175;SDS011;8703;48.996;9.594;2023-06-10T07:37:29;6.07;;;5.57;;
17175;SDS011;8703;48.996;9.594;2023-06-10T07:39:56;6.32;;;5.72;;
17175;SDS011;8703;48.996;9.594;2023-06-10T07:42:24;6.10;;;5.50;;
17175;SDS011;8703;48.996;9.594;2023-06-10T07:44:53;7.43;;;5.63;;
17175;SDS011;8703;48.996;9.594;2023-06-10T07:47:20;8.02;;;5.70;;
17175;SDS011;8703;48.996;9.594;2023-06-10T07:49:47;5.90;;;5.40;;
17175;SDS011;8703;48.996;9.594;2023-06-10T07:52:15;6.95;;;5.50;;
17175;SDS011;8703;48.996;9.594;2023-06-10T07:54:42;6.15;;;5.55;;
17175;SDS011;8703;48.996;9.594;2023-06-10T07:57:10;5.82;;;5.22;;
17175;SDS011;8703;48.996;9.594;2023-06-10T07:59:37;5.95;;;5.35;;
17175;SDS011;8703;48.996;9.594;2023-06-10T08:02:06;5.47;;;4.97;;
17175;SDS011;8703;48.996;9.594;2023-06-10T08:04:34;5.88;;;5.35;;
17175;SDS011;8703;48.996;9.594;2023-06-10T08:07:01;6.65;;;5.68;;
17175;SDS011;8703;48.996;9.594;2023-06-10T08:09:35;6.22;;;5.63;;
17175;SDS011;8703;48.996;9.594;2023-06-10T08:12:03;6.28;;;5.22;;
17175;SDS011;8703;48.996;9.594;2023-06-10T08:14:30;6.05;;;5.50;;
17175;SDS011;8703;48.996;9.594;2023-06-10T08:16:58;5.63;;;5.13;;
17175;SDS011;8703;48.996;9.594;2023-06-10T08:19:26;5.70;;;5.00;;
17175;SDS011;8703;48.996;9.594;2023-06-10T08:21:55;5.90;;;5.18;;
17175;SDS011;8703;48.996;9.594;2023-06-10T08:24:23;5.50;;;5.00;;
17175;SDS011;8703;48.996;9.594;2023-06-10T08:26:50;5.95;;;5.45;;
17175;SDS011;8703;48.996;9.594;2023-06-10T08:29:17;6.43;;;5.82;;
17175;SDS011;8703;48.996;9.594;2023-06-10T08:31:45;9.05;;;5.40;;
17175;SDS011;8703;48.996;9.594;2023-06-10T08:34:12;6.40;;;5.78;;
17175;SDS011;8703;48.996;9.594;2023-06-10T08:36:41;6.70;;;5.95;;
17175;SDS011;8703;48.996;9.594;2023-06-10T08:39:09;6.68;;;5.88;;
17175;SDS011;8703;48.996;9.594;2023-06-10T08:41:37;6.20;;;5.60;;
17175;SDS011;8703;48.996;9.594;2023-06-10T08:44:10;6.43;;;5.78;;
17175;SDS011;8703;48.996;9.594;2023-06-10T08:46:43;5.85;;;5.28;;
17175;SDS011;8703;48.996;9.594;2023-06-10T08:49:14;6.25;;;5.30;;
17175;SDS011;8703;48.996;9.594;2023-06-10T08:51:47;5.82;;;5.05;;
17175;SDS011;8703;48.996;9.594;2023-06-10T08:54:17;6.07;;;5.38;;
17175;SDS011;8703;48.996;9.594;2023-06-10T08:56:48;6.20;;;5.70;;
17175;SDS011;8703;48.996;9.594;2023-06-10T08:59:16;5.55;;;5.05;;
17175;SDS011;8703;48.996;9.594;2023-06-10T09:01:44;6.00;;;5.40;;
17175;SDS011;8703;48.996;9.594;2023-06-10T09:04:12;6.05;;;4.95;;
17175;SDS011;8703;48.996;9.594;2023-06-10T09:06:41;6.63;;;5.15;;
17175;SDS011;8703;48.996;9.594;2023-06-10T09:09:10;5.93;;;5.20;;
17175;SDS011;8703;48.996;9.594;2023-06-10T09:11:39;7.85;;;5.03;;
17175;SDS011;8703;48.996;9.594;2023-06-10T09:14:06;5.00;;;4.60;;
17175;SDS011;8703;48.996;9.594;2023-06-10T09:16:34;5.78;;;4.90;;
17175;SDS011;8703;48.996;9.594;2023-06-10T09:19:04;5.38;;;4.88;;
17175;SDS011;8703;48.996;9.594;2023-06-10T09:21:33;4.78;;;4.38;;
17175;SDS011;8703;48.996;9.594;2023-06-10T09:24:00;5.22;;;4.72;;
17175;SDS011;8703;48.996;9.594;2023-06-10T09:26:29;4.78;;;4.28;;
17175;SDS011;8703;48.996;9.594;2023-06-10T09:28:57;5.72;;;5.13;;
17175;SDS011;8703;48.996;9.594;2023-06-10T09:31:30;5.28;;;4.78;;
17175;SDS011;8703;48.996;9.594;2023-06-10T09:34:05;5.40;;;4.90;;
17175;SDS011;8703;48.996;9.594;2023-06-10T09:36:33;6.03;;;4.90;;
17175;SDS011;8703;48.996;9.594;2023-06-10T09:39:01;5.20;;;4.70;;
17175;SDS011;8703;48.996;9.594;2023-06-10T09:41:33;4.85;;;4.40;;
17175;SDS011;8703;48.996;9.594;2023-06-10T09:44:01;4.90;;;4.50;;
17175;SDS011;8703;48.996;9.594;2023-06-10T09:46:31;4.88;;;4.47;;
17175;SDS011;8703;48.996;9.594;2023-06-10T09:48:59;4.78;;;4.38;;
17175;SDS011;8703;48.996;9.594;2023-06-10T09:51:26;5.15;;;4.75;;
17175;SDS011;8703;48.996;9.594;2023-06-10T09:53:54;5.85;;;4.90;;
17175;SDS011;8703;48.996;9.594;2023-06-10T09:56:21;5.00;;;4.60;;
17175;SDS011;8703;48.996;9.594;2023-06-10T09:59:01;5.53;;;5.03;;
17175;SDS011;8703;48.996;9.594;2023-06-10T10:01:31;6.10;;;5.65;;
17175;SDS011;8703;48.996;9.594;2023-06-10T10:03:58;9.13;;;8.32;;
17175;SDS011;8703;48.996;9.594;2023-06-10T10:06:26;6.47;;;5.97;;
17175;SDS011;8703;48.996;9.594;2023-06-10T10:08:55;6.88;;;6.28;;
17175;SDS011;8703;48.996;9.594;2023-06-10T10:11:23;7.75;;;7.13;;
17175;SDS011;8703;48.996;9.594;2023-06-10T11:24:38;4.65;;;4.18;;
17175;SDS011;8703;48.996;9.594;2023-06-10T11:27:14;5.70;;;5.20;;
17175;SDS011;8703;48.996;9.594;2023-06-10T11:29:54;6.30;;;5.88;;
17175;SDS011;8703;48.996;9.594;2023-06-10T11:32:23;7.78;;;7.22;;
17175;SDS011;8703;48.996;9.594;2023-06-10T11:34:52;8.00;;;7.50;;
17175;SDS011;8703;48.996;9.594;2023-06-10T11:37:20;8.95;;;8.32;;
17175;SDS011;8703;48.996;9.594;2023-06-10T11:39:52;8.90;;;8.35;;
17175;SDS011;8703;48.996;9.594;2023-06-10T11:42:19;17.23;;;16.27;;
17175;SDS011;8703;48.996;9.594;2023-06-10T11:44:48;12.50;;;11.60;;
17175;SDS011;8703;48.996;9.594;2023-06-10T11:47:16;13.15;;;12.48;;
17175;SDS011;8703;48.996;9.594;2023-06-10T11:49:43;11.52;;;10.88;;
17175;SDS011;8703;48.996;9.594;2023-06-10T11:52:11;10.25;;;9.70;;
17175;SDS011;8703;48.996;9.594;2023-06-10T11:54:39;13.38;;;12.60;;
17175;SDS011;8703;48.996;9.594;2023-06-10T11:57:08;15.05;;;14.23;;
17175;SDS011;8703;48.996;9.594;2023-06-10T11:59:35;14.38;;;13.52;;
17175;SDS011;8703;48.996;9.594;2023-06-10T12:02:03;15.68;;;14.82;;
17175;SDS011;8703;48.996;9.594;2023-06-10T12:04:31;18.92;;;17.85;;
17175;SDS011;8703;48.996;9.594;2023-06-10T12:06:58;21.58;;;20.42;;
17175;SDS011;8703;48.996;9.594;2023-06-10T12:09:26;18.83;;;17.83;;
17175;SDS011;8703;48.996;9.594;2023-06-10T12:11:55;17.10;;;16.20;;
17175;SDS011;8703;48.996;9.594;2023-06-10T12:17:38;19.00;;;17.85;;
17175;SDS011;8703;48.996;9.594;2023-06-10T12:20:06;26.38;;;25.00;;
17175;SDS011;8703;48.996;9.594;2023-06-10T12:22:38;40.00;;;37.85;;
17175;SDS011;8703;48.996;9.594;2023-06-10T12:25:06;48.63;;;45.97;;
17175;SDS011;8703;48.996;9.594;2023-06-10T12:27:34;60.95;;;57.88;;
17175;SDS011;8703;48.996;9.594;2023-06-10T12:30:02;83.50;;;79.05;;
17175;SDS011;8703;48.996;9.594;2023-06-10T12:32:34;87.40;;;83.15;;
17175;SDS011;8703;48.996;9.594;2023-06-10T12:35:04;84.40;;;80.00;;
17175;SDS011;8703;48.996;9.594;2023-06-10T12:37:33;95.28;;;90.55;;
17175;SDS011;8703;48.996;9.594;2023-06-10T12:40:01;85.75;;;81.30;;
17175;SDS011;8703;48.996;9.594;2023-06-10T12:42:28;93.00;;;88.38;;
17175;SDS011;8703;48.996;9.594;2023-06-10T12:44:58;93.07;;;88.15;;
17175;SDS011;8703;48.996;9.594;2023-06-10T12:47:29;79.40;;;75.53;;
17175;SDS011;8703;48.996;9.594;2023-06-10T12:49:59;116.47;;;110.60;;
17175;SDS011;8703;48.996;9.594;2023-06-10T12:52:29;100.65;;;95.47;;
17175;SDS011;8703;48.996;9.594;2023-06-10T12:54:57;71.80;;;68.07;;
17175;SDS011;8703;48.996;9.594;2023-06-10T12:57:25;86.68;;;82.22;;
17175;SDS011;8703;48.996;9.594;2023-06-10T12:59:53;91.97;;;87.43;;
17175;SDS011;8703;48.996;9.594;2023-06-10T13:02:25;125.80;;;119.72;;
17175;SDS011;8703;48.996;9.594;2023-06-10T13:04:52;127.70;;;121.57;;
17175;SDS011;8703;48.996;9.594;2023-06-10T13:07:20;125.93;;;120.10;;
17175;SDS011;8703;48.996;9.594;2023-06-10T13:09:49;138.70;;;131.55;;
17175;SDS011;8703;48.996;9.594;2023-06-10T13:12:16;153.65;;;146.48;;
17175;SDS011;8703;48.996;9.594;2023-06-10T13:14:44;176.50;;;167.90;;
17175;SDS011;8703;48.996;9.594;2023-06-10T13:17:11;228.60;;;217.57;;
17175;SDS011;8703;48.996;9.594;2023-06-10T13:19:39;164.45;;;156.75;;
17175;SDS011;8703;48.996;9.594;2023-06-10T13:22:06;247.20;;;235.52;;
17175;SDS011;8703;48.996;9.594;2023-06-10T13:24:34;226.85;;;215.82;;
17175;SDS011;8703;48.996;9.594;2023-06-10T13:27:03;282.92;;;269.23;;
17175;SDS011;8703;48.996;9.594;2023-06-10T13:29:31;234.70;;;223.20;;
17175;SDS011;8703;48.996;9.594;2023-06-10T13:31:59;282.75;;;268.80;;
17175;SDS011;8703;48.996;9.594;2023-06-10T13:34:26;324.83;;;308.60;;
17175;SDS011;8703;48.996;9.594;2023-06-10T13:36:54;254.43;;;242.27;;
17175;SDS011;8703;48.996;9.594;2023-06-10T13:39:21;305.27;;;289.88;;
17175;SDS011;8703;48.996;9.594;2023-06-10T13:41:48;254.35;;;241.35;;
17175;SDS011;8703;48.996;9.594;2023-06-10T13:44:18;188.77;;;179.70;;
17175;SDS011;8703;48.996;9.594;2023-06-10T13:46:45;186.95;;;177.98;;
17175;SDS011;8703;48.996;9.594;2023-06-10T13:49:13;166.98;;;159.18;;
17175;SDS011;8703;48.996;9.594;2023-06-10T13:51:40;161.88;;;154.13;;
17175;SDS011;8703;48.996;9.594;2023-06-10T13:54:07;213.45;;;203.25;;
17175;SDS011;8703;48.996;9.594;2023-06-10T13:56:35;142.18;;;135.32;;
17175;SDS011;8703;48.996;9.594;2023-06-10T13:59:03;278.67;;;265.30;;
17175;SDS011;8703;48.996;9.594;2023-06-10T14:01:32;234.95;;;223.80;;
17175;SDS011;8703;48.996;9.594;2023-06-10T14:04:00;230.40;;;218.85;;
17175;SDS011;8703;48.996;9.594;2023-06-10T14:06:27;183.57;;;174.32;;
17175;SDS011;8703;48.996;9.594;2023-06-10T14:08:55;156.63;;;148.80;;
17175;SDS011;8703;48.996;9.594;2023-06-10T14:11:23;152.65;;;145.05;;
17175;SDS011;8703;48.996;9.594;2023-06-10T14:13:50;185.65;;;176.27;;
17175;SDS011;8703;48.996;9.594;2023-06-10T14:16:17;179.50;;;170.40;;
17175;SDS011;8703;48.996;9.594;2023-06-10T14:18:46;149.82;;;142.32;;
17175;SDS011;8703;48.996;9.594;2023-06-10T14:21:15;113.47;;;107.95;;
17175;SDS011;8703;48.996;9.594;2023-06-10T14:23:42;141.65;;;134.85;;
17175;SDS011;8703;48.996;9.594;2023-06-10T14:26:10;152.02;;;144.70;;
17175;SDS011;8703;48.996;9.594;2023-06-10T14:28:38;134.75;;;128.23;;
17175;SDS011;8703;48.996;9.594;2023-06-10T14:31:05;214.15;;;203.63;;
17175;SDS011;8703;48.996;9.594;2023-06-10T14:33:32;242.85;;;231.07;;
17175;SDS011;8703;48.996;9.594;2023-06-10T14:36:01;275.30;;;261.15;;
17175;SDS011;8703;48.996;9.594;2023-06-10T14:38:29;330.63;;;313.60;;
17175;SDS011;8703;48.996;9.594;2023-06-10T14:40:56;343.05;;;325.02;;
17175;SDS011;8703;48.996;9.594;2023-06-10T14:43:24;315.80;;;299.67;;
17175;SDS011;8703;48.996;9.594;2023-06-10T14:45:51;363.42;;;344.63;;
17175;SDS011;8703;48.996;9.594;2023-06-10T14:48:20;328.35;;;311.98;;
17175;SDS011;8703;48.996;9.594;2023-06-10T14:50:48;331.77;;;315.40;;
17175;SDS011;8703;48.996;9.594;2023-06-10T14:53:17;349.23;;;332.02;;
17175;SDS011;8703;48.996;9.594;2023-06-10T14:55:44;304.50;;;289.45;;
17175;SDS011;8703;48.996;9.594;2023-06-10T14:58:12;428.67;;;406.63;;
17175;SDS011;8703;48.996;9.594;2023-06-10T15:00:39;395.75;;;375.75;;
17175;SDS011;8703;48.996;9.594;2023-06-10T15:03:07;332.20;;;315.67;;
17175;SDS011;8703;48.996;9.594;2023-06-10T15:05:34;449.50;;;426.35;;
17175;SDS011;8703;48.996;9.594;2023-06-10T15:08:02;399.98;;;379.58;;
17175;SDS011;8703;48.996;9.594;2023-06-10T15:10:31;355.13;;;337.45;;
17175;SDS011;8703;48.996;9.594;2023-06-10T15:12:59;402.63;;;382.35;;
17175;SDS011;8703;48.996;9.594;2023-06-10T15:15:26;407.02;;;386.75;;
17175;SDS011;8703;48.996;9.594;2023-06-10T15:17:53;404.05;;;382.63;;
17175;SDS011;8703;48.996;9.594;2023-06-10T15:20:21;443.05;;;419.77;;
17175;SDS011;8703;48.996;9.594;2023-06-10T15:22:49;466.10;;;441.98;;
17175;SDS011;8703;48.996;9.594;2023-06-10T15:25:16;476.58;;;451.38;;
17175;SDS011;8703;48.996;9.594;2023-06-10T15:27:45;529.50;;;501.00;;
17175;SDS011;8703;48.996;9.594;2023-06-10T15:30:12;520.42;;;491.02;;
17175;SDS011;8703;48.996;9.594;2023-06-10T15:32:40;558.90;;;527.63;;
17175;SDS011;8703;48.996;9.594;2023-06-10T15:35:07;572.55;;;540.20;;
17175;SDS011;8703;48.996;9.594;2023-06-10T15:37:35;564.63;;;530.42;;
17175;SDS011;8703;48.996;9.594;2023-06-10T15:40:03;610.15;;;572.53;;
17175;SDS011;8703;48.996;9.594;2023-06-10T15:42:31;600.38;;;564.22;;
17175;SDS011;8703;48.996;9.594;2023-06-10T15:45:00;593.95;;;560.03;;
17175;SDS011;8703;48.996;9.594;2023-06-10T15:47:28;570.88;;;537.67;;
17175;SDS011;8703;48.996;9.594;2023-06-10T15:49:55;489.60;;;463.10;;
17175;SDS011;8703;48.996;9.594;2023-06-10T15:52:23;534.30;;;503.00;;
17175;SDS011;8703;48.996;9.594;2023-06-10T15:54:50;695.10;;;648.28;;
17175;SDS011;8703;48.996;9.594;2023-06-10T15:57:18;584.90;;;549.15;;
17175;SDS011;8703;48.996;9.594;2023-06-10T15:59:45;642.05;;;602.53;;
17175;SDS011;8703;48.996;9.594;2023-06-10T16:02:14;571.13;;;537.00;;
17175;SDS011;8703;48.996;9.594;2023-06-10T16:04:41;567.85;;;535.55;;
17175;SDS011;8703;48.996;9.594;2023-06-10T16:07:09;536.13;;;506.42;;
17175;SDS011;8703;48.996;9.594;2023-06-10T16:09:36;575.50;;;540.35;;
17175;SDS011;8703;48.996;9.594;2023-06-10T16:12:04;545.67;;;514.15;;
17175;SDS011;8703;48.996;9.594;2023-06-10T16:14:32;629.88;;;590.95;;
17175;SDS011;8703;48.996;9.594;2023-06-10T16:17:00;562.38;;;527.72;;
17175;SDS011;8703;48.996;9.594;2023-06-10T16:19:29;623.92;;;584.55;;
17175;SDS011;8703;48.996;9.594;2023-06-10T16:21:56;562.13;;;530.15;;
17175;SDS011;8703;48.996;9.594;2023-06-10T16:24:24;527.15;;;497.27;;
17175;SDS011;8703;48.996;9.594;2023-06-10T16:26:51;528.75;;;499.15;;
17175;SDS011;8703;48.996;9.594;2023-06-10T16:29:19;555.88;;;524.63;;
17175;SDS011;8703;48.996;9.594;2023-06-10T16:31:46;574.13;;;540.30;;
17175;SDS011;8703;48.996;9.594;2023-06-10T16:34:14;563.45;;;531.55;;
17175;SDS011;8703;48.996;9.594;2023-06-10T16:36:43;581.83;;;546.67;;
17175;SDS011;8703;48.996;9.594;2023-06-10T16:39:10;569.17;;;536.33;;
17175;SDS011;8703;48.996;9.594;2023-06-10T16:41:37;557.80;;;523.80;;
17175;SDS011;8703;48.996;9.594;2023-06-10T16:44:05;561.72;;;529.35;;
17175;SDS011;8703;48.996;9.594;2023-06-10T16:46:32;502.75;;;475.00;;
17175;SDS011;8703;48.996;9.594;2023-06-10T16:49:00;589.35;;;553.92;;
17175;SDS011;8703;48.996;9.594;2023-06-10T16:51:28;543.67;;;511.67;;
17175;SDS011;8703;48.996;9.594;2023-06-10T16:53:56;556.30;;;523.22;;
17175;SDS011;8703;48.996;9.594;2023-06-10T16:56:24;505.33;;;477.58;;
17175;SDS011;8703;48.996;9.594;2023-06-10T16:58:51;555.25;;;522.55;;
17175;SDS011;8703;48.996;9.594;2023-06-10T17:01:19;556.42;;;525.10;;
17175;SDS011;8703;48.996;9.594;2023-06-10T17:03:46;543.40;;;513.17;;
17175;SDS011;8703;48.996;9.594;2023-06-10T17:06:14;511.35;;;482.48;;
17175;SDS011;8703;48.996;9.594;2023-06-10T17:08:43;526.42;;;497.08;;
17175;SDS011;8703;48.996;9.594;2023-06-10T17:11:12;532.35;;;502.95;;
17175;SDS011;8703;48.996;9.594;2023-06-10T17:13:39;519.53;;;491.60;;
17175;SDS011;8703;48.996;9.594;2023-06-10T17:16:07;498.65;;;470.90;;
17175;SDS011;8703;48.996;9.594;2023-06-10T17:18:34;552.35;;;520.97;;
17175;SDS011;8703;48.996;9.594;2023-06-10T17:21:01;469.60;;;444.88;;
17175;SDS011;8703;48.996;9.594;2023-06-10T17:23:29;526.08;;;497.17;;
17175;SDS011;8703;48.996;9.594;2023-06-10T17:25:56;514.20;;;486.08;;
17175;SDS011;8703;48.996;9.594;2023-06-10T17:28:25;492.23;;;465.85;;
17175;SDS011;8703;48.996;9.594;2023-06-10T17:30:53;495.60;;;469.00;;
17175;SDS011;8703;48.996;9.594;2023-06-10T17:33:20;524.83;;;495.92;;
17175;SDS011;8703;48.996;9.594;2023-06-10T17:35:48;392.27;;;372.48;;
17175;SDS011;8703;48.996;9.594;2023-06-10T17:38:16;496.90;;;470.65;;
17175;SDS011;8703;48.996;9.594;2023-06-10T17:40:45;539.60;;;509.35;;
17175;SDS011;8703;48.996;9.594;2023-06-10T17:43:12;512.30;;;484.10;;
17175;SDS011;8703;48.996;9.594;2023-06-10T17:45:41;527.10;;;498.30;;
17175;SDS011;8703;48.996;9.594;2023-06-10T17:48:09;506.58;;;478.90;;
17175;SDS011;8703;48.996;9.594;2023-06-10T17:50:36;511.50;;;484.80;;
17175;SDS011;8703;48.996;9.594;2023-06-10T17:53:04;503.95;;;476.83;;
17175;SDS011;8703;48.996;9.594;2023-06-10T17:55:31;483.67;;;457.63;;
17175;SDS011;8703;48.996;9.594;2023-06-10T17:57:58;513.45;;;485.20;;
17175;SDS011;8703;48.996;9.594;2023-06-10T18:00:26;429.85;;;407.98;;
17175;SDS011;8703;48.996;9.594;2023-06-10T18:02:55;444.90;;;421.63;;
17175;SDS011;8703;48.996;9.594;2023-06-10T18:05:22;419.65;;;398.17;;
17175;SDS011;8703;48.996;9.594;2023-06-10T18:07:50;392.67;;;372.90;;
17175;SDS011;8703;48.996;9.594;2023-06-10T18:10:18;341.55;;;324.42;;
17175;SDS011;8703;48.996;9.594;2023-06-10T18:12:46;311.80;;;296.35;;
17175;SDS011;8703;48.996;9.594;2023-06-10T18:15:13;299.40;;;285.00;;
17175;SDS011;8703;48.996;9.594;2023-06-10T18:17:41;239.73;;;227.40;;
17175;SDS011;8703;48.996;9.594;2023-06-10T18:20:10;213.27;;;202.80;;
17175;SDS011;8703;48.996;9.594;2023-06-10T18:22:38;152.15;;;143.70;;
17175;SDS011;8703;48.996;9.594;2023-06-10T18:25:05;194.60;;;184.35;;
17175;SDS011;8703;48.996;9.594;2023-06-10T18:27:33;166.98;;;157.85;;
17175;SDS011;8703;48.996;9.594;2023-06-10T18:30:01;118.50;;;111.78;;
17175;SDS011;8703;48.996;9.594;2023-06-10T18:32:28;102.13;;;96.38;;
17175;SDS011;8703;48.996;9.594;2023-06-10T18:34:56;106.97;;;100.80;;
17175;SDS011;8703;48.996;9.594;2023-06-10T18:37:25;77.97;;;73.65;;
17175;SDS011;8703;48.996;9.594;2023-06-10T18:39:52;92.95;;;87.85;;
17175;SDS011;8703;48.996;9.594;2023-06-10T18:42:19;77.00;;;72.95;;
17175;SDS011;8703;48.996;9.594;2023-06-10T18:44:47;36.60;;;34.63;;
17175;SDS011;8703;48.996;9.594;2023-06-10T18:47:14;29.25;;;27.70;;
17175;SDS011;8703;48.996;9.594;2023-06-10T18:49:41;35.35;;;33.53;;
17175;SDS011;8703;48.996;9.594;2023-06-10T18:52:10;41.03;;;38.75;;
17175;SDS011;8703;48.996;9.594;2023-06-10T18:54:39;31.23;;;29.38;;
17175;SDS011;8703;48.996;9.594;2023-06-10T18:57:06;36.45;;;34.55;;